sensor_id;sensor_type;location;lat;lon;timestamp;P1;durP1;ratioP1;P2;durP2;ratioP2
19645;SDS011;9971;52.446;13.452;2023-01-24T00:00:20;12.90;;;9.80;;
19645;SDS011;9971;52.446;13.452;2023-01-24T00:05:23;10.65;;;9.18;;
19645;SDS011;9971;52.446;13.452;2023-01-24T00:10:25;11.63;;;9.73;;
19645;SDS011;9971;52.446;13.452;2023-01-24T00:15:28;13.90;;;10.13;;
19645;SDS011;9971;52.446;13.452;2023-01-24T00:20:30;12.60;;;9.90;;
19645;SDS011;9971;52.446;13.452;2023-01-24T00:25:32;14.43;;;10.38;;
19645;SDS011;9971;52.446;13.452;2023-01-24T00:30:35;14.35;;;9.68;;
19645;SDS011;9971;52.446;13.452;2023-01-24T00:35:38;13.93;;;10.40;;
19645;SDS011;9971;52.446;13.452;2023-01-24T00:40:40;12.65;;;10.55;;
19645;SDS011;9971;52.446;13.452;2023-01-24T00:45:44;13.90;;;11.03;;
19645;SDS011;9971;52.446;13.452;2023-01-24T00:50:45;15.53;;;10.60;;
19645;SDS011;9971;52.446;13.452;2023-01-24T00:55:47;15.68;;;11.33;;
19645;SDS011;9971;52.446;13.452;2023-01-24T01:00:50;13.13;;;10.20;;
19645;SDS011;9971;52.446;13.452;2023-01-24T01:05:57;17.30;;;11.67;;
19645;SDS011;9971;52.446;13.452;2023-01-24T01:11:00;15.10;;;10.72;;
19645;SDS011;9971;52.446;13.452;2023-01-24T01:16:04;15.85;;;11.53;;
19645;SDS011;9971;52.446;13.452;2023-01-24T01:21:06;14.30;;;11.90;;
19645;SDS011;9971;52.446;13.452;2023-01-24T01:26:08;7.17;;;5.78;;
19645;SDS011;9971;52.446;13.452;2023-01-24T01:31:10;5.30;;;3.63;;
19645;SDS011;9971;52.446;13.452;2023-01-24T01:36:12;18.35;;;10.98;;
19645;SDS011;9971;52.446;13.452;2023-01-24T01:41:14;26.55;;;18.70;;
19645;SDS011;9971;52.446;13.452;2023-01-24T01:46:17;28.93;;;19.43;;
19645;SDS011;9971;52.446;13.452;2023-01-24T01:51:23;28.83;;;19.97;;
19645;SDS011;9971;52.446;13.452;2023-01-24T01:56:25;30.08;;;20.65;;
19645;SDS011;9971;52.446;13.452;2023-01-24T02:26:27;36.28;;;26.23;;
19645;SDS011;9971;52.446;13.452;2023-01-24T02:56:29;41.30;;;31.15;;
19645;SDS011;9971;52.446;13.452;2023-01-24T03:26:37;36.98;;;27.93;;
19645;SDS011;9971;52.446;13.452;2023-01-24T03:56:46;36.38;;;28.92;;
19645;SDS011;9971;52.446;13.452;2023-01-24T04:26:49;33.30;;;26.07;;
19645;SDS011;9971;52.446;13.452;2023-01-24T04:56:51;34.08;;;27.35;;
19645;SDS011;9971;52.446;13.452;2023-01-24T05:26:54;31.40;;;25.95;;
19645;SDS011;9971;52.446;13.452;2023-01-24T05:56:57;32.48;;;25.77;;
19645;SDS011;9971;52.446;13.452;2023-01-24T06:27:00;30.10;;;24.40;;
19645;SDS011;9971;52.446;13.452;2023-01-24T06:57:03;26.17;;;21.50;;
19645;SDS011;9971;52.446;13.452;2023-01-24T07:27:06;22.37;;;18.30;;
19645;SDS011;9971;52.446;13.452;2023-01-24T07:32:09;25.57;;;19.07;;
19645;SDS011;9971;52.446;13.452;2023-01-24T07:37:11;22.00;;;18.53;;
19645;SDS011;9971;52.446;13.452;2023-01-24T07:42:13;20.30;;;17.52;;
19645;SDS011;9971;52.446;13.452;2023-01-24T07:47:17;20.43;;;17.32;;
19645;SDS011;9971;52.446;13.452;2023-01-24T07:52:19;20.03;;;15.90;;
19645;SDS011;9971;52.446;13.452;2023-01-24T07:57:22;20.15;;;16.45;;
19645;SDS011;9971;52.446;13.452;2023-01-24T08:02:24;19.57;;;15.98;;
19645;SDS011;9971;52.446;13.452;2023-01-24T08:07:27;20.30;;;17.20;;
19645;SDS011;9971;52.446;13.452;2023-01-24T08:12:29;20.52;;;16.37;;
19645;SDS011;9971;52.446;13.452;2023-01-24T08:17:32;17.77;;;15.88;;
19645;SDS011;9971;52.446;13.452;2023-01-24T08:22:34;18.67;;;14.53;;
19645;SDS011;9971;52.446;13.452;2023-01-24T08:27:39;17.30;;;14.58;;
19645;SDS011;9971;52.446;13.452;2023-01-24T08:32:39;17.40;;;14.87;;
19645;SDS011;9971;52.446;13.452;2023-01-24T08:37:43;17.73;;;14.43;;
19645;SDS011;9971;52.446;13.452;2023-01-24T08:42:43;16.57;;;14.40;;
19645;SDS011;9971;52.446;13.452;2023-01-24T08:47:50;16.70;;;14.07;;
19645;SDS011;9971;52.446;13.452;2023-01-24T08:52:48;15.47;;;13.47;;
19645;SDS011;9971;52.446;13.452;2023-01-24T08:57:50;11.48;;;9.83;;
19645;SDS011;9971;52.446;13.452;2023-01-24T09:02:52;10.95;;;9.78;;
19645;SDS011;9971;52.446;13.452;2023-01-24T09:07:55;14.23;;;12.73;;
19645;SDS011;9971;52.446;13.452;2023-01-24T09:12:57;13.07;;;11.13;;
19645;SDS011;9971;52.446;13.452;2023-01-24T09:18:00;12.15;;;10.72;;
19645;SDS011;9971;52.446;13.452;2023-01-24T09:23:08;11.83;;;10.63;;
19645;SDS011;9971;52.446;13.452;2023-01-24T09:28:11;11.03;;;9.68;;
19645;SDS011;9971;52.446;13.452;2023-01-24T09:33:13;12.13;;;10.23;;
19645;SDS011;9971;52.446;13.452;2023-01-24T09:38:15;9.67;;;8.37;;
19645;SDS011;9971;52.446;13.452;2023-01-24T09:43:28;9.55;;;8.25;;
19645;SDS011;9971;52.446;13.452;2023-01-24T09:48:30;8.03;;;7.13;;
19645;SDS011;9971;52.446;13.452;2023-01-24T09:53:36;6.95;;;6.20;;
19645;SDS011;9971;52.446;13.452;2023-01-24T09:58:36;7.47;;;6.37;;
19645;SDS011;9971;52.446;13.452;2023-01-24T10:03:37;8.53;;;7.60;;
19645;SDS011;9971;52.446;13.452;2023-01-24T10:19:48;8.23;;;6.20;;
19645;SDS011;9971;52.446;13.452;2023-01-24T10:24:37;7.23;;;6.53;;
19645;SDS011;9971;52.446;13.452;2023-01-24T10:29:38;8.83;;;7.90;;
19645;SDS011;9971;52.446;13.452;2023-01-24T10:34:41;9.30;;;8.07;;
19645;SDS011;9971;52.446;13.452;2023-01-24T10:39:43;9.60;;;8.05;;
19645;SDS011;9971;52.446;13.452;2023-01-24T10:44:45;8.25;;;7.25;;
19645;SDS011;9971;52.446;13.452;2023-01-24T10:49:50;7.67;;;6.87;;
19645;SDS011;9971;52.446;13.452;2023-01-24T11:00:25;8.50;;;7.57;;
19645;SDS011;9971;52.446;13.452;2023-01-24T11:05:34;7.17;;;6.40;;
19645;SDS011;9971;52.446;13.452;2023-01-24T11:10:42;6.73;;;5.67;;
19645;SDS011;9971;52.446;13.452;2023-01-24T11:15:46;7.20;;;6.47;;
19645;SDS011;9971;52.446;13.452;2023-01-24T11:20:47;8.00;;;6.60;;
19645;SDS011;9971;52.446;13.452;2023-01-24T11:25:53;17.50;;;13.93;;
19645;SDS011;9971;52.446;13.452;2023-01-24T11:30:54;19.80;;;15.10;;
19645;SDS011;9971;52.446;13.452;2023-01-24T11:35:59;22.17;;;15.28;;
19645;SDS011;9971;52.446;13.452;2023-01-24T11:41:02;20.05;;;14.75;;
19645;SDS011;9971;52.446;13.452;2023-01-24T11:46:50;21.55;;;14.87;;
19645;SDS011;9971;52.446;13.452;2023-01-24T11:56:52;20.03;;;14.07;;
19645;SDS011;9971;52.446;13.452;2023-01-24T12:01:57;18.20;;;13.93;;
19645;SDS011;9971;52.446;13.452;2023-01-24T12:12:07;18.90;;;14.87;;
19645;SDS011;9971;52.446;13.452;2023-01-24T12:22:34;19.23;;;13.93;;
19645;SDS011;9971;52.446;13.452;2023-01-24T12:27:37;18.82;;;14.05;;
19645;SDS011;9971;52.446;13.452;2023-01-24T12:32:42;17.85;;;12.88;;
19645;SDS011;9971;52.446;13.452;2023-01-24T12:38:00;20.47;;;14.00;;
19645;SDS011;9971;52.446;13.452;2023-01-24T12:43:06;18.00;;;13.03;;
19645;SDS011;9971;52.446;13.452;2023-01-24T12:48:14;20.52;;;14.10;;
19645;SDS011;9971;52.446;13.452;2023-01-24T12:53:20;18.48;;;12.95;;
19645;SDS011;9971;52.446;13.452;2023-01-24T12:58:26;19.70;;;13.50;;
19645;SDS011;9971;52.446;13.452;2023-01-24T13:09:07;21.77;;;14.70;;
19645;SDS011;9971;52.446;13.452;2023-01-24T13:14:26;21.37;;;14.20;;
19645;SDS011;9971;52.446;13.452;2023-01-24T13:19:49;20.55;;;14.20;;
19645;SDS011;9971;52.446;13.452;2023-01-24T13:24:51;21.83;;;15.53;;
19645;SDS011;9971;52.446;13.452;2023-01-24T13:35:26;24.97;;;14.03;;
19645;SDS011;9971;52.446;13.452;2023-01-24T13:40:29;18.32;;;13.15;;
19645;SDS011;9971;52.446;13.452;2023-01-24T13:45:39;20.32;;;14.03;;
19645;SDS011;9971;52.446;13.452;2023-01-24T13:50:44;19.47;;;13.53;;
19645;SDS011;9971;52.446;13.452;2023-01-24T13:55:59;22.45;;;13.25;;
19645;SDS011;9971;52.446;13.452;2023-01-24T14:00:51;17.87;;;13.00;;
19645;SDS011;9971;52.446;13.452;2023-01-24T14:06:12;22.25;;;13.72;;
19645;SDS011;9971;52.446;13.452;2023-01-24T14:11:16;20.57;;;13.40;;
19645;SDS011;9971;52.446;13.452;2023-01-24T14:16:55;20.13;;;14.27;;
19645;SDS011;9971;52.446;13.452;2023-01-24T14:21:56;20.93;;;14.10;;
19645;SDS011;9971;52.446;13.452;2023-01-24T14:26:58;19.57;;;13.28;;
19645;SDS011;9971;52.446;13.452;2023-01-24T14:32:00;20.43;;;13.25;;
19645;SDS011;9971;52.446;13.452;2023-01-24T14:37:02;18.95;;;13.78;;
19645;SDS011;9971;52.446;13.452;2023-01-24T14:42:05;22.30;;;14.33;;
19645;SDS011;9971;52.446;13.452;2023-01-24T14:52:20;23.23;;;13.73;;
19645;SDS011;9971;52.446;13.452;2023-01-24T14:57:24;21.53;;;14.10;;
19645;SDS011;9971;52.446;13.452;2023-01-24T15:02:25;21.33;;;13.37;;
19645;SDS011;9971;52.446;13.452;2023-01-24T15:07:27;15.70;;;9.60;;
19645;SDS011;9971;52.446;13.452;2023-01-24T15:12:31;5.03;;;4.10;;
19645;SDS011;9971;52.446;13.452;2023-01-24T15:17:32;2.55;;;2.17;;
19645;SDS011;9971;52.446;13.452;2023-01-24T15:22:36;3.05;;;2.55;;
19645;SDS011;9971;52.446;13.452;2023-01-24T15:27:37;4.13;;;3.10;;
19645;SDS011;9971;52.446;13.452;2023-01-24T15:32:40;3.80;;;2.90;;
19645;SDS011;9971;52.446;13.452;2023-01-24T15:37:41;2.50;;;2.23;;
19645;SDS011;9971;52.446;13.452;2023-01-24T15:42:45;2.27;;;1.98;;
19645;SDS011;9971;52.446;13.452;2023-01-24T15:48:24;3.15;;;2.83;;
19645;SDS011;9971;52.446;13.452;2023-01-24T15:58:23;3.02;;;2.20;;
19645;SDS011;9971;52.446;13.452;2023-01-24T16:03:25;2.83;;;2.30;;
19645;SDS011;9971;52.446;13.452;2023-01-24T16:08:27;3.33;;;2.33;;
19645;SDS011;9971;52.446;13.452;2023-01-24T16:13:32;3.00;;;2.72;;
19645;SDS011;9971;52.446;13.452;2023-01-24T16:18:32;2.72;;;2.20;;
19645;SDS011;9971;52.446;13.452;2023-01-24T16:23:35;2.50;;;2.30;;
19645;SDS011;9971;52.446;13.452;2023-01-24T16:28:37;3.35;;;2.60;;
19645;SDS011;9971;52.446;13.452;2023-01-24T16:33:40;2.52;;;2.15;;
19645;SDS011;9971;52.446;13.452;2023-01-24T16:38:43;2.25;;;2.05;;
19645;SDS011;9971;52.446;13.452;2023-01-24T16:43:45;2.77;;;2.30;;
19645;SDS011;9971;52.446;13.452;2023-01-24T16:48:48;2.77;;;2.25;;
19645;SDS011;9971;52.446;13.452;2023-01-24T16:53:52;2.30;;;2.07;;
19645;SDS011;9971;52.446;13.452;2023-01-24T16:58:54;1.80;;;1.70;;
19645;SDS011;9971;52.446;13.452;2023-01-24T17:03:55;2.17;;;1.97;;
19645;SDS011;9971;52.446;13.452;2023-01-24T17:08:58;2.25;;;2.05;;
19645;SDS011;9971;52.446;13.452;2023-01-24T17:14:00;2.10;;;1.90;;
19645;SDS011;9971;52.446;13.452;2023-01-24T17:19:03;1.92;;;1.82;;
19645;SDS011;9971;52.446;13.452;2023-01-24T17:24:05;2.25;;;2.05;;
19645;SDS011;9971;52.446;13.452;2023-01-24T17:29:07;2.13;;;1.93;;
19645;SDS011;9971;52.446;13.452;2023-01-24T17:34:10;2.33;;;2.10;;
19645;SDS011;9971;52.446;13.452;2023-01-24T17:39:12;2.00;;;1.80;;
19645;SDS011;9971;52.446;13.452;2023-01-24T17:44:14;2.10;;;1.90;;
19645;SDS011;9971;52.446;13.452;2023-01-24T17:49:17;2.08;;;1.87;;
19645;SDS011;9971;52.446;13.452;2023-01-24T17:54:19;2.70;;;2.42;;
19645;SDS011;9971;52.446;13.452;2023-01-24T17:59:22;2.33;;;1.92;;
19645;SDS011;9971;52.446;13.452;2023-01-24T18:04:25;2.05;;;1.85;;
19645;SDS011;9971;52.446;13.452;2023-01-24T18:09:27;2.40;;;2.00;;
19645;SDS011;9971;52.446;13.452;2023-01-24T18:14:30;2.40;;;2.17;;
19645;SDS011;9971;52.446;13.452;2023-01-24T18:19:32;1.98;;;1.77;;
19645;SDS011;9971;52.446;13.452;2023-01-24T18:24:34;2.20;;;2.00;;
19645;SDS011;9971;52.446;13.452;2023-01-24T18:29:37;2.20;;;2.00;;
19645;SDS011;9971;52.446;13.452;2023-01-24T18:34:41;1.77;;;1.67;;
19645;SDS011;9971;52.446;13.452;2023-01-24T18:39:44;2.73;;;2.13;;
19645;SDS011;9971;52.446;13.452;2023-01-24T18:44:49;2.03;;;1.87;;
19645;SDS011;9971;52.446;13.452;2023-01-24T18:49:53;2.27;;;2.07;;
19645;SDS011;9971;52.446;13.452;2023-01-24T18:54:55;1.87;;;1.75;;
19645;SDS011;9971;52.446;13.452;2023-01-24T18:59:58;2.37;;;2.17;;
19645;SDS011;9971;52.446;13.452;2023-01-24T19:05:00;2.35;;;2.15;;
19645;SDS011;9971;52.446;13.452;2023-01-24T19:10:03;2.37;;;2.17;;
19645;SDS011;9971;52.446;13.452;2023-01-24T19:15:06;1.98;;;1.85;;
19645;SDS011;9971;52.446;13.452;2023-01-24T19:20:09;1.90;;;1.80;;
19645;SDS011;9971;52.446;13.452;2023-01-24T19:25:13;1.77;;;1.67;;
19645;SDS011;9971;52.446;13.452;2023-01-24T19:30:16;2.00;;;1.80;;
19645;SDS011;9971;52.446;13.452;2023-01-24T19:35:20;1.65;;;1.55;;
19645;SDS011;9971;52.446;13.452;2023-01-24T19:40:22;1.63;;;1.53;;
19645;SDS011;9971;52.446;13.452;2023-01-24T19:45:25;2.20;;;1.87;;
19645;SDS011;9971;52.446;13.452;2023-01-24T19:50:28;1.55;;;1.42;;
19645;SDS011;9971;52.446;13.452;2023-01-24T19:55:30;1.70;;;1.60;;
19645;SDS011;9971;52.446;13.452;2023-01-24T20:00:33;1.77;;;1.67;;
19645;SDS011;9971;52.446;13.452;2023-01-24T20:05:36;2.05;;;1.72;;
19645;SDS011;9971;52.446;13.452;2023-01-24T20:10:38;2.53;;;1.70;;
19645;SDS011;9971;52.446;13.452;2023-01-24T20:15:39;1.60;;;1.50;;
19645;SDS011;9971;52.446;13.452;2023-01-24T20:20:48;1.67;;;1.57;;
19645;SDS011;9971;52.446;13.452;2023-01-24T20:25:49;1.90;;;1.80;;
19645;SDS011;9971;52.446;13.452;2023-01-24T20:30:52;1.60;;;1.50;;
19645;SDS011;9971;52.446;13.452;2023-01-24T20:35:58;1.72;;;1.62;;
19645;SDS011;9971;52.446;13.452;2023-01-24T20:41:02;1.60;;;1.50;;
19645;SDS011;9971;52.446;13.452;2023-01-24T20:46:05;1.70;;;1.60;;
19645;SDS011;9971;52.446;13.452;2023-01-24T20:51:06;1.60;;;1.50;;
19645;SDS011;9971;52.446;13.452;2023-01-24T20:56:09;3.37;;;2.43;;
19645;SDS011;9971;52.446;13.452;2023-01-24T21:01:13;2.90;;;2.07;;
19645;SDS011;9971;52.446;13.452;2023-01-24T21:06:15;2.65;;;2.40;;
19645;SDS011;9971;52.446;13.452;2023-01-24T21:11:20;2.47;;;2.27;;
19645;SDS011;9971;52.446;13.452;2023-01-24T21:16:20;2.73;;;2.13;;
19645;SDS011;9971;52.446;13.452;2023-01-24T21:21:23;2.90;;;2.50;;
19645;SDS011;9971;52.446;13.452;2023-01-24T21:26:24;2.62;;;2.33;;
19645;SDS011;9971;52.446;13.452;2023-01-24T21:31:27;2.72;;;2.37;;
19645;SDS011;9971;52.446;13.452;2023-01-24T21:36:29;2.62;;;2.17;;
19645;SDS011;9971;52.446;13.452;2023-01-24T21:41:32;3.62;;;2.40;;
19645;SDS011;9971;52.446;13.452;2023-01-24T21:46:39;2.50;;;2.25;;
19645;SDS011;9971;52.446;13.452;2023-01-24T21:51:44;2.65;;;2.42;;
19645;SDS011;9971;52.446;13.452;2023-01-24T21:56:47;2.63;;;2.13;;
19645;SDS011;9971;52.446;13.452;2023-01-24T22:01:54;2.60;;;2.17;;
19645;SDS011;9971;52.446;13.452;2023-01-24T22:06:56;1.97;;;1.87;;
19645;SDS011;9971;52.446;13.452;2023-01-24T22:11:57;2.50;;;1.97;;
19645;SDS011;9971;52.446;13.452;2023-01-24T22:17:01;2.15;;;1.72;;
19645;SDS011;9971;52.446;13.452;2023-01-24T22:22:08;1.90;;;1.80;;
19645;SDS011;9971;52.446;13.452;2023-01-24T22:27:22;2.30;;;2.10;;
19645;SDS011;9971;52.446;13.452;2023-01-24T22:32:25;1.75;;;1.60;;
19645;SDS011;9971;52.446;13.452;2023-01-24T22:37:31;1.77;;;1.67;;
19645;SDS011;9971;52.446;13.452;2023-01-24T22:42:31;1.40;;;1.30;;
19645;SDS011;9971;52.446;13.452;2023-01-24T22:47:34;1.33;;;1.23;;
19645;SDS011;9971;52.446;13.452;2023-01-24T22:52:36;1.50;;;1.40;;
19645;SDS011;9971;52.446;13.452;2023-01-24T22:57:38;1.67;;;1.57;;
19645;SDS011;9971;52.446;13.452;2023-01-24T23:02:40;2.23;;;1.43;;
19645;SDS011;9971;52.446;13.452;2023-01-24T23:07:43;1.47;;;1.37;;
19645;SDS011;9971;52.446;13.452;2023-01-24T23:12:45;1.50;;;1.40;;
19645;SDS011;9971;52.446;13.452;2023-01-24T23:17:53;1.33;;;1.23;;
19645;SDS011;9971;52.446;13.452;2023-01-24T23:22:55;1.67;;;1.57;;
19645;SDS011;9971;52.446;13.452;2023-01-24T23:27:57;1.95;;;1.42;;
19645;SDS011;9971;52.446;13.452;2023-01-24T23:33:03;2.60;;;1.73;;
19645;SDS011;9971;52.446;13.452;2023-01-24T23:38:03;1.50;;;1.40;;
19645;SDS011;9971;52.446;13.452;2023-01-24T23:43:06;1.13;;;1.13;;
19645;SDS011;9971;52.446;13.452;2023-01-24T23:48:08;1.47;;;1.32;;
19645;SDS011;9971;52.446;13.452;2023-01-24T23:53:10;1.30;;;1.20;;
19645;SDS011;9971;52.446;13.452;2023-01-24T23:58:12;1.45;;;1.17;;
